This is the latest recevied weather packets stored in our database for station/object EA1GCN-10. If no packets are shown the sender has not sent any weather packets the latest 1 day(s).
| Time | Temp. | Humidity | Pressure | Rain* | Wind** | Luminosity | Snow |
|---|---|---|---|---|---|---|---|
| 1777745494 | 22.22° C | 62% | 1014 hPa | - | - | - | - |
| 1777743694 | 22.22° C | 61% | 1014 hPa | - | - | - | - |
| 1777741894 | 22.22° C | 59% | 1014 hPa | - | - | - | - |
| 1777740093 | 22.78° C | 58% | 1014 hPa | - | - | - | - |
| 1777738293 | 22.78° C | 56% | 1014 hPa | - | - | - | - |
| 1777736493 | 22.78° C | 56% | 1014 hPa | - | - | - | - |
| 1777734693 | 22.78° C | 56% | 1015 hPa | - | - | - | - |
| 1777732893 | 22.78° C | 56% | 1015 hPa | - | - | - | - |
| 1777731093 | 22.78° C | 54% | 1014 hPa | - | - | - | - |
| 1777729293 | 23.33° C | 53% | 1015 hPa | - | - | - | - |
| 1777727493 | 23.33° C | 52% | 1015 hPa | - | - | - | - |
| 1777725693 | 22.78° C | 53% | 1014 hPa | - | - | - | - |
| 1777723892 | 22.22° C | 55% | 1015 hPa | - | - | - | - |
| 1777722092 | 21.67° C | 56% | 1015 hPa | - | - | - | - |
| 1777720292 | 22.78° C | 55% | 1015 hPa | - | - | - | - |
| 1777718492 | 22.78° C | 54% | 1016 hPa | - | - | - | - |
| 1777716692 | 22.22° C | 57% | 1016 hPa | - | - | - | - |
| 1777714892 | 23.33° C | 55% | 1016 hPa | - | - | - | - |
| 1777713092 | 22.78° C | 56% | 1016 hPa | - | - | - | - |
| 1777711292 | 21.67° C | 58% | 1016 hPa | - | - | - | - |
| 1777709491 | 21.67° C | 58% | 1015 hPa | - | - | - | - |
| 1777707691 | 20.56° C | 58% | 1016 hPa | - | - | - | - |
| 1777705891 | 20.56° C | 59% | 1016 hPa | - | - | - | - |
* Rain since midnight (hover to see other rain measurements)
** Current wind speed in m/s (hover to see current wind gust speed)